createdAt,value
2022-08-08T00:01:20.065Z,76.70
2022-08-08T00:04:16.019Z,76.90
2022-08-08T00:07:12.707Z,78.00
2022-08-08T00:09:43.845Z,77.50
2022-08-08T00:12:14.851Z,77.50
2022-08-08T00:15:05.022Z,77.50
2022-08-08T00:18:03.107Z,78.00
2022-08-08T00:20:40.085Z,77.80
2022-08-08T00:23:14.791Z,77.90
2022-08-08T00:25:51.089Z,78.20
2022-08-08T00:28:35.481Z,78.30
2022-08-08T00:32:28.904Z,78.30
2022-08-08T00:35:00.888Z,78.80
2022-08-08T00:38:02.202Z,78.80
2022-08-08T00:41:09.105Z,79.10
2022-08-08T00:43:19.347Z,79.00
2022-08-08T00:45:58.675Z,79.60
2022-08-08T00:48:59.014Z,80.30
2022-08-08T00:51:57.133Z,79.70
2022-08-08T00:54:42.703Z,79.80
2022-08-08T00:58:03.735Z,79.80
2022-08-08T01:01:12.406Z,80.30
2022-08-08T01:04:04.129Z,79.90
2022-08-08T01:07:09.420Z,80.40
2022-08-08T01:09:56.041Z,80.10
2022-08-08T01:12:48.064Z,80.50
2022-08-08T01:15:47.047Z,80.30
2022-08-08T01:18:53.481Z,80.50
2022-08-08T01:22:12.972Z,80.50
2022-08-08T01:25:16.841Z,81.50
2022-08-08T01:28:08.761Z,81.00
2022-08-08T01:32:05.717Z,80.90
2022-08-08T01:34:12.686Z,81.10
2022-08-08T01:37:13.443Z,81.20
2022-08-08T01:40:02.552Z,81.30
2022-08-08T01:42:54.740Z,81.40
2022-08-08T01:46:12.163Z,81.50
2022-08-08T01:48:59.216Z,81.70
2022-08-08T01:52:04.533Z,81.60
2022-08-08T01:55:26.313Z,82.00
2022-08-08T01:58:12.185Z,83.00
2022-08-08T02:00:58.575Z,82.10
2022-08-08T02:03:56.864Z,82.00
2022-08-08T02:06:55.923Z,82.20
2022-08-08T02:10:03.444Z,82.60
2022-08-08T02:12:57.836Z,82.50
2022-08-08T02:15:47.097Z,82.40
2022-08-08T02:18:39.391Z,82.60
2022-08-08T02:21:39.315Z,83.00
2022-08-08T02:24:19.834Z,82.70
2022-08-08T02:26:52.070Z,83.00
2022-08-08T02:29:51.847Z,82.90
2022-08-08T02:32:34.710Z,82.90
2022-08-08T02:35:08.488Z,83.10
2022-08-08T02:37:58.342Z,83.30
2022-08-08T02:40:45.234Z,83.20
2022-08-08T02:44:43.152Z,83.80
2022-08-08T02:47:04.414Z,83.70
2022-08-08T02:49:59.473Z,83.60
2022-08-08T02:53:07.815Z,83.70
2022-08-08T02:56:01.582Z,83.80
2022-08-08T02:58:34.022Z,84.00
2022-08-08T03:01:28.268Z,85.30
2022-08-08T03:05:02.702Z,84.70
2022-08-08T03:07:58.265Z,84.60
2022-08-08T03:10:33.628Z,84.50
2022-08-08T03:13:07.199Z,85.20
2022-08-08T03:15:58.850Z,85.80
2022-08-08T03:18:45.499Z,84.80
2022-08-08T03:21:14.609Z,84.90
2022-08-08T03:23:59.145Z,85.00
2022-08-08T03:26:31.124Z,85.80
2022-08-08T03:29:04.358Z,85.80
2022-08-08T03:32:06.362Z,85.40
2022-08-08T03:34:35.568Z,85.70
2022-08-08T03:37:58.843Z,85.50
2022-08-08T03:40:02.296Z,85.70
2022-08-08T03:42:31.469Z,85.80
2022-08-08T03:44:58.797Z,85.90
2022-08-08T03:47:39.436Z,85.80
2022-08-08T03:50:19.847Z,86.00
2022-08-08T03:52:47.196Z,86.20
2022-08-08T03:55:50.940Z,86.10
2022-08-08T03:58:32.315Z,86.20
2022-08-08T04:01:01.510Z,86.40
2022-08-08T04:03:59.805Z,87.00
2022-08-08T04:06:23.574Z,86.50
2022-08-08T04:08:56.404Z,86.90
2022-08-08T04:11:25.242Z,86.60
2022-08-08T04:14:16.137Z,86.80
2022-08-08T04:16:41.454Z,86.80
2022-08-08T04:19:24.199Z,87.50
2022-08-08T04:21:52.591Z,87.30
2022-08-08T04:24:28.685Z,87.10
2022-08-08T04:26:59.154Z,87.20
2022-08-08T04:29:27.284Z,87.10
2022-08-08T04:31:58.366Z,87.40
2022-08-08T04:34:28.138Z,87.20
2022-08-08T04:36:59.533Z,87.60
2022-08-08T04:40:05.927Z,87.40
2022-08-08T04:42:17.434Z,87.50
2022-08-08T04:44:47.520Z,87.60
2022-08-08T04:47:15.122Z,87.60
2022-08-08T04:49:58.986Z,87.60
2022-08-08T04:52:33.906Z,88.00
2022-08-08T04:55:01.682Z,88.00
2022-08-08T04:57:28.922Z,88.70
2022-08-08T04:59:58.461Z,88.80
2022-08-08T05:02:31.193Z,88.30
2022-08-08T05:04:59.833Z,88.60
2022-08-08T05:07:38.133Z,88.20
2022-08-08T05:10:12.752Z,87.90
2022-08-08T05:12:43.080Z,87.90
2022-08-08T05:16:47.981Z,88.90
2022-08-08T05:18:15.298Z,88.10
2022-08-08T05:20:50.243Z,88.10
2022-08-08T05:23:19.635Z,88.50
2022-08-08T05:25:49.578Z,88.10
2022-08-08T05:28:48.152Z,88.30
2022-08-08T05:31:19.293Z,87.80
2022-08-08T05:33:50.828Z,88.20
2022-08-08T05:36:25.428Z,88.10
2022-08-08T05:38:58.564Z,88.50
2022-08-08T05:41:27.891Z,89.10
2022-08-08T05:44:04.868Z,89.00
2022-08-08T05:46:33.003Z,88.60
2022-08-08T05:49:00.749Z,88.50
2022-08-08T05:51:48.195Z,88.70
2022-08-08T05:54:28.138Z,88.20
2022-08-08T05:57:04.736Z,88.90
2022-08-08T05:59:58.658Z,88.60
2022-08-08T06:02:48.190Z,88.70
2022-08-08T06:05:33.812Z,88.50
2022-08-08T06:08:09.342Z,88.70
2022-08-08T06:10:49.455Z,88.40
2022-08-08T06:13:22.035Z,88.80
2022-08-08T06:15:53.616Z,89.00
2022-08-08T06:18:25.636Z,89.60
2022-08-08T06:20:56.237Z,88.90
2022-08-08T06:23:32.672Z,89.10
2022-08-08T06:26:43.270Z,89.00
2022-08-08T06:29:26.373Z,88.30
2022-08-08T06:32:10.860Z,89.40
2022-08-08T06:34:52.524Z,89.00
2022-08-08T06:37:37.896Z,88.10
2022-08-08T06:40:11.406Z,89.10
2022-08-08T06:42:56.321Z,88.70
2022-08-08T06:45:24.136Z,88.50
2022-08-08T06:48:01.454Z,88.10
2022-08-08T06:50:32.192Z,88.00
2022-08-08T06:53:09.865Z,87.80
2022-08-08T06:55:42.059Z,88.50
2022-08-08T06:58:10.126Z,88.90
2022-08-08T07:00:43.244Z,87.90
2022-08-08T07:04:35.469Z,87.70
2022-08-08T07:06:10.520Z,89.00
2022-08-08T07:08:43.817Z,87.10
2022-08-08T07:11:22.443Z,88.70
2022-08-08T07:14:00.434Z,87.90
2022-08-08T07:16:55.513Z,88.10
2022-08-08T07:19:28.101Z,87.70
2022-08-08T07:22:05.619Z,86.90
2022-08-08T07:24:54.144Z,87.20
2022-08-08T07:27:27.818Z,87.00
2022-08-08T07:30:19.637Z,86.80
2022-08-08T07:32:52.945Z,88.00
2022-08-08T07:35:20.490Z,87.20
2022-08-08T07:38:04.438Z,87.40
2022-08-08T07:40:36.358Z,86.60
2022-08-08T07:43:08.800Z,86.40
2022-08-08T07:45:51.468Z,86.30
2022-08-08T07:48:24.010Z,87.10
2022-08-08T07:50:53.949Z,85.90
2022-08-08T07:54:01.110Z,86.40
2022-08-08T07:56:35.636Z,86.00
2022-08-08T07:59:08.757Z,86.00
2022-08-08T08:02:32.787Z,86.10
2022-08-08T08:04:41.264Z,86.60
2022-08-08T08:07:08.926Z,86.10
2022-08-08T08:09:40.340Z,85.90
2022-08-08T08:12:10.087Z,85.70
2022-08-08T08:15:07.160Z,84.10
2022-08-08T08:17:48.129Z,86.70
2022-08-08T08:20:18.584Z,84.10
2022-08-08T08:22:47.311Z,84.80
2022-08-08T08:25:19.135Z,86.50
2022-08-08T08:27:47.221Z,83.30
2022-08-08T08:30:15.024Z,84.00
2022-08-08T08:32:51.284Z,83.90
2022-08-08T08:35:29.517Z,84.10
2022-08-08T08:38:17.312Z,82.20
2022-08-08T08:40:48.743Z,82.20
2022-08-08T08:43:19.227Z,81.70
2022-08-08T08:45:49.062Z,82.10
2022-08-08T08:48:20.093Z,80.40
2022-08-08T08:50:51.937Z,82.00
2022-08-08T08:53:27.197Z,80.10
2022-08-08T08:56:07.775Z,80.80
2022-08-08T08:58:46.798Z,79.30
2022-08-08T09:01:27.985Z,79.10
2022-08-08T09:04:00.786Z,79.50
2022-08-08T09:06:33.681Z,78.60
2022-08-08T09:09:47.666Z,78.30
2022-08-08T09:12:20.029Z,77.90
2022-08-08T09:14:48.817Z,78.20
2022-08-08T09:17:19.072Z,78.50
2022-08-08T09:21:57.183Z,77.90
2022-08-08T09:22:58.369Z,77.70
2022-08-08T09:25:36.116Z,78.80
2022-08-08T09:28:12.771Z,78.50
2022-08-08T09:31:12.527Z,77.70
2022-08-08T09:34:15.115Z,78.10
2022-08-08T09:36:36.107Z,77.90
2022-08-08T09:39:15.439Z,77.30
2022-08-08T09:42:21.211Z,77.70
2022-08-08T09:45:08.232Z,75.40
2022-08-08T09:48:05.016Z,75.00
2022-08-08T09:50:34.456Z,75.20
2022-08-08T09:53:22.338Z,75.30
2022-08-08T09:56:05.444Z,74.40
2022-08-08T09:58:44.891Z,73.80
2022-08-08T10:01:15.136Z,74.60
2022-08-08T10:04:01.991Z,75.40
2022-08-08T10:06:32.415Z,75.70
2022-08-08T10:08:59.918Z,73.70
2022-08-08T10:12:27.035Z,74.30
2022-08-08T10:14:27.643Z,73.40
2022-08-08T10:18:05.311Z,74.40
2022-08-08T10:20:00.473Z,74.40
2022-08-08T10:22:29.908Z,72.90
2022-08-08T10:25:05.226Z,72.50
2022-08-08T10:27:42.528Z,72.50
2022-08-08T10:30:16.641Z,72.20
2022-08-08T10:33:00.247Z,72.90
2022-08-08T10:36:08.437Z,72.00
2022-08-08T10:38:19.703Z,71.70
2022-08-08T10:40:53.082Z,72.50
2022-08-08T10:43:22.264Z,71.60
2022-08-08T10:45:56.841Z,72.50
2022-08-08T10:48:57.530Z,71.90
2022-08-08T10:51:26.296Z,71.90
2022-08-08T10:53:59.779Z,71.60
2022-08-08T10:56:35.897Z,71.20
2022-08-08T10:59:12.218Z,72.60
2022-08-08T11:01:54.289Z,69.60
2022-08-08T11:04:38.747Z,70.60
2022-08-08T11:07:06.748Z,69.50
2022-08-08T11:09:34.718Z,69.50
2022-08-08T11:12:12.425Z,69.50
2022-08-08T11:14:57.342Z,70.10
2022-08-08T11:18:00.183Z,71.40
2022-08-08T11:20:27.725Z,69.10
2022-08-08T11:22:58.072Z,70.10
2022-08-08T11:25:52.005Z,68.00
2022-08-08T11:28:23.049Z,68.00
2022-08-08T11:30:54.926Z,66.50
2022-08-08T11:33:53.320Z,68.00
2022-08-08T11:36:15.260Z,68.00
2022-08-08T11:38:54.866Z,69.00
2022-08-08T11:41:23.877Z,69.00
2022-08-08T11:43:53.878Z,68.90
2022-08-08T11:46:25.722Z,68.80
2022-08-08T11:48:55.606Z,67.90
2022-08-08T11:51:30.948Z,68.40
2022-08-08T11:54:26.760Z,68.80
2022-08-08T11:56:56.495Z,68.30
2022-08-08T11:59:57.744Z,67.50
2022-08-08T12:02:32.215Z,69.60
2022-08-08T12:05:13.494Z,69.80
2022-08-08T12:07:52.102Z,70.50
2022-08-08T12:10:21.639Z,70.40
2022-08-08T12:12:49.644Z,68.10
2022-08-08T12:15:41.909Z,68.90
2022-08-08T12:18:28.597Z,66.20
2022-08-08T12:20:58.832Z,67.40
2022-08-08T12:23:43.880Z,70.00
2022-08-08T12:26:28.069Z,67.90
2022-08-08T12:29:36.510Z,68.30
2022-08-08T12:32:19.510Z,65.90
2022-08-08T12:34:51.119Z,67.40
2022-08-08T12:37:41.147Z,66.60
2022-08-08T12:40:23.693Z,64.10
2022-08-08T12:42:52.057Z,64.50
2022-08-08T12:45:59.480Z,64.60
2022-08-08T12:48:18.234Z,65.80
2022-08-08T12:50:58.451Z,65.80
2022-08-08T12:53:37.897Z,65.60
2022-08-08T12:56:17.605Z,64.60
2022-08-08T12:58:50.157Z,65.80
2022-08-08T13:01:17.195Z,66.40
2022-08-08T13:03:52.104Z,66.60
2022-08-08T13:06:20.275Z,67.80
2022-08-08T13:08:53.690Z,66.40
2022-08-08T13:11:28.428Z,66.20
2022-08-08T13:14:15.598Z,65.90
2022-08-08T13:16:43.540Z,66.30
2022-08-08T13:19:18.103Z,66.60
2022-08-08T13:21:53.413Z,66.60
2022-08-08T13:24:42.365Z,66.80
2022-08-08T13:27:22.040Z,66.60
2022-08-08T13:29:55.084Z,66.40
2022-08-08T13:32:25.477Z,64.20
2022-08-08T13:34:57.397Z,65.40
2022-08-08T13:38:05.133Z,66.10
2022-08-08T13:40:26.644Z,64.80
2022-08-08T13:42:55.521Z,64.90
2022-08-08T13:45:24.384Z,63.80
2022-08-08T13:48:02.852Z,64.70
2022-08-08T13:50:48.845Z,63.80
2022-08-08T13:53:36.351Z,64.30
2022-08-08T13:56:11.734Z,65.10
2022-08-08T13:58:57.572Z,64.20
2022-08-08T14:01:41.591Z,64.90
2022-08-08T14:04:24.457Z,64.30
2022-08-08T14:07:04.021Z,63.20
2022-08-08T14:10:05.409Z,64.20
2022-08-08T14:12:27.967Z,64.20
2022-08-08T14:14:55.401Z,63.10
2022-08-08T14:17:58.516Z,64.40
2022-08-08T14:20:15.492Z,64.00
2022-08-08T14:23:10.088Z,63.60
2022-08-08T14:25:54.011Z,61.40
2022-08-08T14:28:29.103Z,62.60
2022-08-08T14:31:10.560Z,63.90
2022-08-08T14:33:37.799Z,64.00
2022-08-08T14:36:13.282Z,64.50
2022-08-08T14:38:52.183Z,62.60
2022-08-08T14:41:45.194Z,63.00
2022-08-08T14:44:11.989Z,61.20
2022-08-08T14:46:41.658Z,60.10
2022-08-08T14:49:20.575Z,59.90
2022-08-08T14:52:08.285Z,60.60
2022-08-08T14:54:46.118Z,61.50
2022-08-08T14:57:13.456Z,61.40
2022-08-08T14:59:44.434Z,60.90
2022-08-08T15:02:31.112Z,62.30
2022-08-08T15:05:10.614Z,62.00
2022-08-08T15:07:40.251Z,60.40
2022-08-08T15:10:09.316Z,60.90
2022-08-08T15:12:37.370Z,60.70
2022-08-08T15:15:09.134Z,60.70
2022-08-08T15:17:37.847Z,59.60
2022-08-08T15:20:12.156Z,60.00
2022-08-08T15:22:41.861Z,59.80
2022-08-08T15:25:18.010Z,60.00
2022-08-08T15:28:04.815Z,61.10
2022-08-08T15:30:43.469Z,60.90
2022-08-08T15:33:19.138Z,61.00
2022-08-08T15:35:59.765Z,61.20
2022-08-08T15:38:27.382Z,61.50
2022-08-08T15:40:54.271Z,62.60
2022-08-08T15:43:36.228Z,61.50
2022-08-08T15:46:04.130Z,61.10
2022-08-08T15:48:31.140Z,62.10
2022-08-08T15:51:06.218Z,61.90
2022-08-08T15:53:48.982Z,60.80
2022-08-08T15:56:19.913Z,61.20
2022-08-08T15:58:48.846Z,61.60
2022-08-08T16:01:16.739Z,61.90
2022-08-08T16:03:48.000Z,61.60
2022-08-08T16:06:15.346Z,61.30
2022-08-08T16:13:00.253Z,61.50
2022-08-08T16:13:04.845Z,61.50
2022-08-08T16:14:32.489Z,62.00
2022-08-08T16:17:00.418Z,63.20
2022-08-08T16:19:27.941Z,63.00
2022-08-08T16:21:57.630Z,60.80
2022-08-08T16:24:24.547Z,61.90
2022-08-08T16:26:51.417Z,62.10
2022-08-08T16:29:37.065Z,61.80
2022-08-08T16:32:11.178Z,61.50
2022-08-08T16:34:40.598Z,61.90
2022-08-08T16:37:07.448Z,63.20
2022-08-08T16:40:02.631Z,62.90
2022-08-08T16:42:21.221Z,61.90
2022-08-08T16:44:54.621Z,61.10
2022-08-08T16:47:31.670Z,62.50
2022-08-08T16:50:13.173Z,61.90
2022-08-08T16:55:20.752Z,61.20
2022-08-08T16:55:55.915Z,61.40
2022-08-08T16:58:21.072Z,61.60
2022-08-08T17:00:53.095Z,61.40
2022-08-08T17:03:25.079Z,61.80
2022-08-08T17:06:35.556Z,62.90
2022-08-08T17:08:58.668Z,64.20
2022-08-08T17:11:28.011Z,63.70
2022-08-08T17:14:06.164Z,64.50
2022-08-08T17:16:57.644Z,64.00
2022-08-08T17:19:27.308Z,64.50
2022-08-08T17:21:54.729Z,64.50
2022-08-08T17:24:29.863Z,65.30
2022-08-08T17:26:58.862Z,65.10
2022-08-08T17:29:27.230Z,65.60
2022-08-08T17:31:54.603Z,64.80
2022-08-08T17:34:37.279Z,65.10
2022-08-08T17:37:12.812Z,66.00
2022-08-08T17:40:04.740Z,64.00
2022-08-08T17:42:28.193Z,63.30
2022-08-08T17:44:57.598Z,63.20
2022-08-08T17:47:28.223Z,64.20
2022-08-08T17:50:06.234Z,64.90
2022-08-08T17:52:35.373Z,64.90
2022-08-08T17:56:03.825Z,65.00
2022-08-08T17:57:52.253Z,66.10
2022-08-08T18:00:25.917Z,66.00
2022-08-08T18:03:09.170Z,65.50
2022-08-08T18:05:44.010Z,66.40
2022-08-08T18:08:25.186Z,66.10
2022-08-08T18:11:16.861Z,66.50
2022-08-08T18:13:46.339Z,66.50
2022-08-08T18:16:20.758Z,66.10
2022-08-08T18:18:56.677Z,66.60
2022-08-08T18:21:59.350Z,66.70
2022-08-08T18:24:20.980Z,66.70
2022-08-08T18:26:55.059Z,66.80
2022-08-08T18:29:36.038Z,67.30
2022-08-08T18:32:05.613Z,67.00
2022-08-08T18:34:35.174Z,66.80
2022-08-08T18:37:07.887Z,67.20
2022-08-08T18:39:38.489Z,66.80
2022-08-08T18:42:13.947Z,67.00
2022-08-08T18:44:55.658Z,67.20
2022-08-08T18:47:25.950Z,68.30
2022-08-08T18:49:58.586Z,67.70
2022-08-08T18:52:27.083Z,67.60
2022-08-08T18:54:59.683Z,67.60
2022-08-08T18:57:42.032Z,68.20
2022-08-08T19:00:15.878Z,67.50
2022-08-08T19:02:48.029Z,68.10
2022-08-08T19:05:15.529Z,67.80
2022-08-08T19:07:52.311Z,67.80
2022-08-08T19:10:19.655Z,68.30
2022-08-08T19:12:53.069Z,67.10
2022-08-08T19:15:23.595Z,67.20
2022-08-08T19:18:30.824Z,67.30
2022-08-08T19:20:39.794Z,67.20
2022-08-08T19:23:10.163Z,67.70
2022-08-08T19:26:19.809Z,67.40
2022-08-08T19:28:24.755Z,67.20
2022-08-08T19:31:04.156Z,67.50
2022-08-08T19:33:52.212Z,67.30
2022-08-08T19:36:27.366Z,67.30
2022-08-08T19:38:55.293Z,68.20
2022-08-08T19:41:25.498Z,67.60
2022-08-08T19:44:02.235Z,67.50
2022-08-08T19:46:33.557Z,68.00
2022-08-08T19:49:01.439Z,67.50
2022-08-08T19:51:34.220Z,67.60
2022-08-08T19:54:06.681Z,67.60
2022-08-08T19:56:40.447Z,68.70
2022-08-08T19:59:09.255Z,67.60
2022-08-08T20:02:01.086Z,67.80
2022-08-08T20:04:24.000Z,68.20
2022-08-08T20:06:51.113Z,68.10
2022-08-08T20:09:22.993Z,67.80
2022-08-08T20:11:50.610Z,67.90
2022-08-08T20:14:34.116Z,68.40
2022-08-08T20:17:02.743Z,68.30
2022-08-08T20:19:34.879Z,68.70
2022-08-08T20:22:13.201Z,68.60
2022-08-08T20:24:48.523Z,68.90
2022-08-08T20:27:20.464Z,69.50
2022-08-08T20:30:00.213Z,69.20
2022-08-08T20:32:28.147Z,70.00
2022-08-08T20:35:01.038Z,70.50
2022-08-08T20:37:46.960Z,70.90
2022-08-08T20:40:33.549Z,71.50
2022-08-08T20:43:16.093Z,71.90
2022-08-08T20:45:57.777Z,72.70
2022-08-08T20:48:30.684Z,73.60
2022-08-08T20:50:58.145Z,74.10
2022-08-08T20:53:58.988Z,74.30
2022-08-08T20:56:14.037Z,75.10
2022-08-08T20:58:47.625Z,75.50
2022-08-08T21:01:19.671Z,75.60
2022-08-08T21:03:55.971Z,76.30
2022-08-08T21:06:53.047Z,76.20
2022-08-08T21:09:15.786Z,76.40
2022-08-08T21:11:51.707Z,76.80
2022-08-08T21:14:30.312Z,77.50
2022-08-08T21:17:01.351Z,77.40
2022-08-08T21:19:44.233Z,77.70
2022-08-08T21:22:12.806Z,78.20
2022-08-08T21:24:41.767Z,77.80
2022-08-08T21:28:05.359Z,78.50
2022-08-08T21:30:10.864Z,78.10
2022-08-08T21:32:45.917Z,78.70
2022-08-08T21:36:16.498Z,78.40
2022-08-08T21:38:08.567Z,78.50
2022-08-08T21:40:56.334Z,78.90
2022-08-08T21:43:34.324Z,79.10
2022-08-08T21:48:12.900Z,78.80
2022-08-08T21:48:54.194Z,79.70
2022-08-08T21:54:18.486Z,78.80
2022-08-08T21:54:33.261Z,79.10
2022-08-08T21:56:59.628Z,79.10
2022-08-08T21:59:28.471Z,79.40
2022-08-08T22:02:16.056Z,79.30
2022-08-08T22:04:46.292Z,79.20
2022-08-08T22:07:13.417Z,79.40
2022-08-08T22:09:41.263Z,79.50
2022-08-08T22:12:15.000Z,79.50
2022-08-08T22:14:44.695Z,79.80
2022-08-08T22:17:17.411Z,79.90
2022-08-08T22:20:10.999Z,79.80
2022-08-08T22:22:37.855Z,80.90
2022-08-08T22:25:17.734Z,79.80
2022-08-08T22:28:03.890Z,79.70
2022-08-08T22:30:33.522Z,80.60
2022-08-08T22:33:01.408Z,79.90
2022-08-08T22:36:04.249Z,80.00
2022-08-08T22:38:17.788Z,80.10
2022-08-08T22:40:45.174Z,80.40
2022-08-08T22:43:16.064Z,80.90
2022-08-08T22:45:46.639Z,80.40
2022-08-08T22:48:21.682Z,80.30
2022-08-08T22:50:49.540Z,81.20
2022-08-08T22:54:27.848Z,80.80
2022-08-08T22:56:03.341Z,80.70
2022-08-08T22:58:33.059Z,80.70
2022-08-08T23:01:02.124Z,80.80
2022-08-08T23:03:54.702Z,80.90
2022-08-08T23:06:23.341Z,81.00
2022-08-08T23:08:55.988Z,81.20
2022-08-08T23:11:30.916Z,81.70
2022-08-08T23:14:20.485Z,81.70
2022-08-08T23:16:57.563Z,82.60
2022-08-08T23:19:27.217Z,81.20
2022-08-08T23:21:54.270Z,81.70
2022-08-08T23:24:22.519Z,82.30
2022-08-08T23:26:55.407Z,81.60
2022-08-08T23:29:25.329Z,81.80
2022-08-08T23:31:52.916Z,81.80
2022-08-08T23:34:20.229Z,81.90
2022-08-08T23:36:48.563Z,82.00
2022-08-08T23:39:16.023Z,82.20
2022-08-08T23:41:47.115Z,82.10
2022-08-08T23:44:18.492Z,82.30
2022-08-08T23:49:03.600Z,82.60
2022-08-08T23:49:34.280Z,82.70
2022-08-08T23:52:06.125Z,82.90
2022-08-08T23:54:42.233Z,83.00
2022-08-08T23:57:25.318Z,83.70
